createdAt,value
2018-07-23T00:00:19.137Z,7.40
2018-07-23T00:02:48.473Z,7.90
2018-07-23T00:05:17.748Z,8.60
2018-07-23T00:07:46.982Z,7.80
2018-07-23T00:10:16.470Z,7.53
2018-07-23T00:12:45.786Z,6.83
2018-07-23T00:15:15.146Z,8.00
2018-07-23T00:17:44.381Z,7.17
2018-07-23T00:20:13.694Z,7.57
2018-07-23T00:22:43.097Z,7.10
2018-07-23T00:25:12.395Z,7.40
2018-07-23T00:27:41.841Z,8.63
2018-07-23T00:30:11.170Z,7.70
2018-07-23T00:32:40.510Z,7.60
2018-07-23T00:35:10.828Z,6.80
2018-07-23T00:37:40.218Z,7.10
2018-07-23T00:40:09.737Z,7.50
2018-07-23T00:42:39.140Z,8.57
2018-07-23T00:45:09.022Z,7.40
2018-07-23T00:47:38.609Z,8.50
2018-07-23T00:50:07.938Z,7.90
2018-07-23T00:52:37.701Z,7.33
2018-07-23T00:55:06.940Z,7.90
2018-07-23T00:57:36.194Z,8.20
2018-07-23T01:00:05.545Z,8.20
2018-07-23T01:02:34.982Z,8.40
2018-07-23T01:05:04.242Z,7.70
2018-07-23T01:07:33.505Z,7.13
2018-07-23T01:10:02.741Z,7.00
2018-07-23T01:12:33.159Z,7.17
2018-07-23T01:15:02.499Z,7.63
2018-07-23T01:17:31.834Z,8.00
2018-07-23T01:20:01.235Z,6.83
2018-07-23T01:22:30.631Z,6.97
2018-07-23T01:24:59.966Z,8.17
2018-07-23T01:27:29.175Z,7.37
2018-07-23T01:29:58.402Z,8.13
2018-07-23T01:32:27.685Z,7.33
2018-07-23T01:34:57.031Z,7.80
2018-07-23T01:37:26.362Z,7.60
2018-07-23T01:39:55.713Z,7.90
2018-07-23T01:42:24.965Z,7.63
2018-07-23T01:44:54.314Z,6.57
2018-07-23T01:47:23.620Z,7.40
2018-07-23T01:49:53.012Z,7.40
2018-07-23T01:52:22.294Z,7.43
2018-07-23T01:54:51.749Z,7.20
2018-07-23T01:57:21.008Z,7.40
2018-07-23T01:59:50.331Z,7.57
2018-07-23T02:02:19.603Z,7.77
2018-07-23T02:04:49.333Z,7.70
2018-07-23T02:07:25.292Z,7.70
2018-07-23T02:09:54.595Z,7.80
2018-07-23T02:12:23.833Z,7.53
2018-07-23T02:14:53.081Z,8.00
2018-07-23T02:17:22.370Z,7.20
2018-07-23T02:19:51.715Z,7.37
2018-07-23T02:22:20.990Z,7.93
2018-07-23T02:24:50.312Z,7.50
2018-07-23T02:27:19.587Z,7.47
2018-07-23T02:29:48.913Z,7.40
2018-07-23T02:32:18.181Z,7.33
2018-07-23T02:34:47.158Z,7.67
2018-07-23T02:37:16.292Z,7.90
2018-07-23T02:39:45.258Z,7.03
2018-07-23T02:42:14.212Z,7.50
2018-07-23T02:44:43.250Z,7.73
2018-07-23T02:47:12.660Z,8.30
2018-07-23T02:49:41.650Z,7.60
2018-07-23T02:52:10.572Z,7.63
2018-07-23T02:54:39.549Z,9.13
2018-07-23T02:57:08.497Z,8.33
2018-07-23T02:59:37.518Z,7.73
2018-07-23T03:02:06.431Z,7.70
2018-07-23T03:04:35.410Z,8.57
2018-07-23T03:07:04.442Z,8.00
2018-07-23T03:09:33.450Z,7.43
2018-07-23T03:12:02.392Z,7.77
2018-07-23T03:14:31.373Z,7.83
2018-07-23T03:17:00.302Z,8.10
2018-07-23T03:19:29.353Z,7.97
2018-07-23T03:21:58.337Z,7.73
2018-07-23T03:24:27.340Z,7.97
2018-07-23T03:26:56.459Z,6.80
2018-07-23T03:29:25.759Z,8.37
2018-07-23T03:31:55.031Z,7.37
2018-07-23T03:34:24.284Z,7.90
2018-07-23T03:36:53.546Z,7.97
2018-07-23T03:39:22.865Z,7.90
2018-07-23T03:41:52.149Z,8.17
2018-07-23T03:44:21.573Z,8.20
2018-07-23T03:46:50.845Z,9.13
2018-07-23T03:49:20.065Z,8.77
2018-07-23T03:51:49.348Z,9.30
2018-07-23T03:54:18.762Z,9.27
2018-07-23T03:56:48.058Z,8.10
2018-07-23T03:59:17.367Z,8.20
2018-07-23T04:01:46.710Z,8.90
2018-07-23T04:04:17.758Z,7.70
2018-07-23T04:06:48.466Z,8.20
2018-07-23T04:09:18.171Z,8.73
2018-07-23T04:11:47.529Z,7.87
2018-07-23T04:14:16.999Z,7.53
2018-07-23T04:16:46.197Z,7.90
2018-07-23T04:19:16.062Z,8.40
2018-07-23T04:21:45.681Z,8.37
2018-07-23T04:24:15.694Z,8.30
2018-07-23T04:26:45.065Z,8.07
2018-07-23T04:29:14.408Z,8.43
2018-07-23T04:31:43.670Z,8.20
2018-07-23T04:34:13.094Z,7.77
2018-07-23T04:36:42.470Z,8.67
2018-07-23T04:39:11.700Z,8.30
2018-07-23T04:41:41.054Z,8.60
2018-07-23T04:44:10.290Z,7.80
2018-07-23T04:46:39.446Z,8.03
2018-07-23T04:49:08.856Z,7.57
2018-07-23T04:51:38.062Z,7.13
2018-07-23T04:54:07.310Z,8.40
2018-07-23T04:56:36.589Z,7.13
2018-07-23T04:59:06.018Z,8.73
2018-07-23T05:01:35.329Z,7.90
2018-07-23T05:04:04.703Z,8.00
2018-07-23T05:06:33.909Z,7.60
2018-07-23T05:09:03.243Z,7.73
2018-07-23T05:11:32.525Z,7.63
2018-07-23T05:14:02.074Z,7.07
2018-07-23T05:16:31.309Z,8.17
2018-07-23T05:19:00.691Z,8.13
2018-07-23T05:21:30.132Z,7.80
2018-07-23T05:24:00.346Z,8.20
2018-07-23T05:26:29.846Z,7.50
2018-07-23T05:28:59.114Z,8.30
2018-07-23T05:31:28.593Z,8.23
2018-07-23T05:33:58.173Z,7.87
2018-07-23T05:36:27.674Z,8.43
2018-07-23T05:38:57.069Z,7.97
2018-07-23T05:41:27.744Z,8.20
2018-07-23T05:43:57.326Z,7.97
2018-07-23T05:46:26.702Z,7.43
2018-07-23T05:48:56.360Z,7.10
2018-07-23T05:51:25.610Z,8.60
2018-07-23T05:53:54.801Z,6.90
2018-07-23T05:56:23.976Z,8.00
2018-07-23T05:58:53.281Z,8.23
2018-07-23T06:01:22.557Z,7.30
2018-07-23T06:03:51.889Z,7.00
2018-07-23T06:06:21.388Z,8.00
2018-07-23T06:08:50.494Z,7.20
2018-07-23T06:11:19.974Z,7.60
2018-07-23T06:13:49.099Z,6.50
2018-07-23T06:16:18.427Z,7.30
2018-07-23T06:18:47.725Z,6.47
2018-07-23T06:21:17.130Z,7.80
2018-07-23T06:23:46.376Z,7.73
2018-07-23T06:26:15.620Z,8.17
2018-07-23T06:28:45.314Z,7.30
2018-07-23T06:31:14.990Z,7.00
2018-07-23T06:33:44.472Z,7.27
2018-07-23T06:36:14.491Z,6.60
2018-07-23T06:38:44.219Z,6.77
2018-07-23T06:41:13.815Z,6.87
2018-07-23T06:43:43.628Z,6.20
2018-07-23T06:46:13.291Z,5.63
2018-07-23T06:48:42.531Z,6.47
2018-07-23T06:51:11.922Z,5.67
2018-07-23T06:53:41.202Z,5.37
2018-07-23T06:56:10.566Z,5.50
2018-07-23T06:58:39.758Z,5.80
2018-07-23T07:01:09.006Z,5.30
2018-07-23T07:03:38.305Z,5.00
2018-07-23T07:06:08.399Z,5.50
2018-07-23T07:08:37.751Z,5.23
2018-07-23T07:11:06.960Z,4.80
2018-07-23T07:13:36.276Z,4.93
2018-07-23T07:16:05.610Z,4.77
2018-07-23T07:18:34.831Z,4.70
2018-07-23T07:21:04.152Z,5.20
2018-07-23T07:23:33.411Z,4.73
2018-07-23T07:26:02.859Z,4.80
2018-07-23T07:28:32.231Z,5.20
2018-07-23T07:31:01.517Z,4.23
2018-07-23T07:33:30.813Z,4.50
2018-07-23T07:36:00.031Z,4.50
2018-07-23T07:38:29.295Z,4.37
2018-07-23T07:40:58.737Z,4.40
2018-07-23T07:43:28.022Z,4.70
2018-07-23T07:45:57.382Z,5.23
2018-07-23T07:48:26.569Z,4.57
2018-07-23T07:50:56.042Z,4.70
2018-07-23T07:53:25.340Z,4.37
2018-07-23T07:55:54.530Z,3.97
2018-07-23T07:58:23.801Z,4.40
2018-07-23T08:00:53.042Z,4.60
2018-07-23T08:03:22.291Z,4.03
2018-07-23T08:05:51.550Z,4.60
2018-07-23T08:08:21.014Z,4.00
2018-07-23T08:10:50.239Z,3.70
2018-07-23T08:13:19.496Z,4.23
2018-07-23T08:15:48.761Z,3.83
2018-07-23T08:18:17.974Z,4.27
2018-07-23T08:20:47.344Z,5.30
2018-07-23T08:23:16.650Z,4.47
2018-07-23T08:25:46.046Z,4.00
2018-07-23T08:28:15.632Z,4.90
2018-07-23T08:30:44.918Z,4.17
2018-07-23T08:33:14.283Z,3.80
2018-07-23T08:35:43.602Z,4.80
2018-07-23T08:38:13.049Z,4.20
2018-07-23T08:40:42.434Z,4.00
2018-07-23T08:43:12.359Z,4.70
2018-07-23T08:45:41.651Z,4.50
2018-07-23T08:48:10.920Z,5.20
2018-07-23T08:50:39.846Z,4.33
2018-07-23T08:53:08.845Z,4.43
2018-07-23T08:55:37.825Z,5.97
2018-07-23T08:58:07.549Z,4.40
2018-07-23T09:00:36.482Z,4.40
2018-07-23T09:03:05.889Z,3.97
2018-07-23T09:05:35.243Z,4.60
2018-07-23T09:08:04.903Z,5.20
2018-07-23T09:10:34.134Z,4.90
2018-07-23T09:13:03.383Z,5.40
2018-07-23T09:15:32.641Z,4.50
2018-07-23T09:18:01.937Z,4.60
2018-07-23T09:20:31.153Z,5.57
2018-07-23T09:23:00.530Z,5.00
2018-07-23T09:25:34.714Z,5.30
2018-07-23T09:28:04.010Z,5.30
2018-07-23T09:30:38.217Z,4.43
2018-07-23T09:33:07.511Z,4.53
2018-07-23T09:35:36.699Z,4.63
2018-07-23T09:38:05.986Z,4.37
2018-07-23T09:40:35.295Z,4.70
2018-07-23T09:43:04.859Z,4.67
2018-07-23T09:45:34.133Z,4.73
2018-07-23T09:48:03.401Z,4.97
2018-07-23T09:50:32.674Z,4.90
2018-07-23T09:53:02.384Z,4.13
2018-07-23T09:55:31.585Z,4.73
2018-07-23T09:58:00.833Z,4.50
2018-07-23T10:00:35.222Z,5.10
2018-07-23T10:03:04.473Z,5.30
2018-07-23T10:05:33.715Z,4.40
2018-07-23T10:08:03.053Z,4.33
2018-07-23T10:10:32.410Z,4.50
2018-07-23T10:13:01.696Z,4.50
2018-07-23T10:15:30.915Z,4.40
2018-07-23T10:18:03.255Z,4.87
2018-07-23T10:20:32.705Z,4.70
2018-07-23T10:23:02.024Z,5.23
2018-07-23T10:25:31.263Z,5.23
2018-07-23T10:28:00.618Z,5.60
2018-07-23T10:30:29.858Z,5.97
2018-07-23T10:32:59.124Z,5.30
2018-07-23T10:35:28.290Z,4.60
2018-07-23T10:37:57.737Z,5.00
2018-07-23T10:40:26.958Z,4.97
2018-07-23T10:42:56.614Z,4.70
2018-07-23T10:45:25.853Z,5.47
2018-07-23T10:47:55.132Z,4.87
2018-07-23T10:50:24.755Z,5.20
2018-07-23T10:52:54.101Z,5.20
2018-07-23T10:55:23.426Z,4.77
2018-07-23T10:57:53.035Z,5.37
2018-07-23T11:00:22.410Z,4.13
2018-07-23T11:02:51.743Z,5.17
2018-07-23T11:05:22.089Z,4.27
2018-07-23T11:07:51.217Z,5.30
2018-07-23T11:10:20.470Z,4.80
2018-07-23T11:12:49.639Z,4.80
2018-07-23T11:15:18.733Z,4.50
2018-07-23T11:17:47.876Z,4.70
2018-07-23T11:20:16.994Z,4.70
2018-07-23T11:22:46.099Z,4.50
2018-07-23T11:25:38.503Z,4.70
2018-07-23T11:27:45.020Z,3.90
2018-07-23T11:30:14.557Z,4.77
2018-07-23T11:32:43.868Z,5.47
2018-07-23T11:35:13.243Z,4.57
2018-07-23T11:37:42.563Z,3.90
2018-07-23T11:40:11.944Z,4.17
2018-07-23T11:42:41.387Z,4.53
2018-07-23T11:45:10.715Z,3.90
2018-07-23T11:47:39.997Z,4.73
2018-07-23T11:50:09.404Z,4.27
2018-07-23T11:52:38.682Z,4.63
2018-07-23T11:55:07.928Z,3.90
2018-07-23T11:57:37.382Z,4.30
2018-07-23T12:00:06.659Z,4.23
2018-07-23T12:02:36.090Z,4.60
2018-07-23T12:05:05.250Z,4.10
2018-07-23T12:07:34.498Z,4.17
2018-07-23T12:10:03.743Z,4.07
2018-07-23T12:12:32.882Z,4.20
2018-07-23T12:15:02.182Z,4.10
2018-07-23T12:17:31.587Z,4.23
2018-07-23T12:20:00.843Z,4.30
2018-07-23T12:22:30.499Z,4.07
2018-07-23T12:24:59.798Z,4.13
2018-07-23T12:27:29.102Z,3.60
2018-07-23T12:29:58.258Z,4.17
2018-07-23T12:32:27.518Z,4.60
2018-07-23T12:34:56.899Z,4.30
2018-07-23T12:37:26.174Z,4.30
2018-07-23T12:39:55.517Z,4.00
2018-07-23T12:42:24.865Z,3.20
2018-07-23T12:44:54.082Z,3.83
2018-07-23T12:47:23.402Z,3.80
2018-07-23T12:49:52.714Z,3.80
2018-07-23T12:52:22.053Z,4.73
2018-07-23T12:54:51.413Z,3.90
2018-07-23T12:57:20.662Z,4.03
2018-07-23T12:59:49.901Z,4.10
2018-07-23T13:02:19.272Z,4.27
2018-07-23T13:04:48.505Z,4.00
2018-07-23T13:07:17.749Z,4.20
2018-07-23T13:09:47.401Z,3.93
2018-07-23T13:12:16.693Z,3.50
2018-07-23T13:14:45.992Z,4.00
2018-07-23T13:17:15.390Z,4.43
2018-07-23T13:19:44.753Z,3.97
2018-07-23T13:22:14.018Z,3.50
2018-07-23T13:24:43.342Z,4.30
2018-07-23T13:27:12.767Z,3.63
2018-07-23T13:29:42.006Z,3.30
2018-07-23T13:32:11.746Z,4.17
2018-07-23T13:34:41.022Z,3.57
2018-07-23T13:37:10.703Z,3.30
2018-07-23T13:39:39.985Z,3.60
2018-07-23T13:42:09.200Z,3.60
2018-07-23T13:44:38.346Z,2.90
2018-07-23T13:47:07.762Z,3.13
2018-07-23T13:49:37.161Z,3.30
2018-07-23T13:52:06.410Z,2.80
2018-07-23T13:54:35.669Z,3.43
2018-07-23T13:57:05.029Z,2.63
2018-07-23T13:59:34.467Z,2.97
2018-07-23T14:02:03.751Z,3.37
2018-07-23T14:04:33.031Z,3.10
2018-07-23T14:07:02.209Z,3.10
2018-07-23T14:09:31.470Z,2.90
2018-07-23T14:12:00.716Z,3.83
2018-07-23T14:14:29.946Z,3.03
2018-07-23T14:16:59.294Z,3.40
2018-07-23T14:19:28.545Z,3.40
2018-07-23T14:21:57.820Z,3.40
2018-07-23T14:24:27.170Z,3.50
2018-07-23T14:26:56.465Z,3.20
2018-07-23T14:29:25.846Z,3.63
2018-07-23T14:31:55.140Z,3.17
2018-07-23T14:34:24.700Z,3.80
2018-07-23T14:36:53.956Z,3.60
2018-07-23T14:39:23.286Z,3.10
2018-07-23T14:41:52.662Z,2.90
2018-07-23T14:44:22.064Z,3.53
2018-07-23T14:46:51.420Z,3.40
2018-07-23T14:49:20.790Z,3.20
2018-07-23T14:51:50.034Z,3.43
2018-07-23T14:54:19.462Z,3.23
2018-07-23T14:56:48.610Z,3.20
2018-07-23T14:59:18.083Z,3.40
2018-07-23T15:01:47.351Z,2.93
2018-07-23T15:04:16.784Z,3.20
2018-07-23T15:06:46.178Z,3.13
2018-07-23T15:09:15.490Z,2.60
2018-07-23T15:11:44.770Z,2.83
2018-07-23T15:14:14.073Z,3.10
2018-07-23T15:16:43.224Z,3.10
2018-07-23T15:19:12.591Z,3.00
2018-07-23T15:21:41.862Z,2.60
2018-07-23T15:24:11.114Z,3.07
2018-07-23T15:26:40.372Z,2.77
2018-07-23T15:29:09.690Z,3.23
2018-07-23T15:31:38.981Z,3.27
2018-07-23T15:34:08.159Z,3.13
2018-07-23T15:36:37.421Z,3.00
2018-07-23T15:39:08.881Z,2.90
2018-07-23T15:41:38.342Z,2.90
2018-07-23T15:44:07.832Z,3.50
2018-07-23T15:46:36.986Z,2.80
2018-07-23T15:49:06.460Z,3.50
2018-07-23T15:51:35.699Z,3.40
2018-07-23T15:54:04.944Z,3.53
2018-07-23T15:56:34.225Z,3.00
2018-07-23T15:59:03.593Z,2.90
2018-07-23T16:01:32.905Z,3.20
2018-07-23T16:04:02.263Z,3.40
2018-07-23T16:06:31.670Z,2.73
2018-07-23T16:09:00.925Z,3.13
2018-07-23T16:11:30.245Z,2.87
2018-07-23T16:13:59.611Z,3.27
2018-07-23T16:16:28.936Z,2.97
2018-07-23T16:18:58.288Z,2.93
2018-07-23T16:21:27.585Z,3.13
2018-07-23T16:23:56.851Z,2.60
2018-07-23T16:26:26.272Z,2.90
2018-07-23T16:28:55.560Z,2.77
2018-07-23T16:31:24.845Z,2.60
2018-07-23T16:33:54.113Z,2.50
2018-07-23T16:36:23.443Z,2.70
2018-07-23T16:38:52.639Z,3.00
2018-07-23T16:41:21.870Z,2.57
2018-07-23T16:43:51.159Z,2.43
2018-07-23T16:46:20.510Z,2.63
2018-07-23T16:48:49.809Z,2.83
2018-07-23T16:51:19.063Z,2.70
2018-07-23T16:53:48.270Z,2.83
2018-07-23T16:56:17.530Z,2.83
2018-07-23T16:58:46.748Z,2.50
2018-07-23T17:01:16.156Z,2.80
2018-07-23T17:03:45.361Z,2.30
2018-07-23T17:06:14.796Z,2.60
2018-07-23T17:08:44.059Z,2.20
2018-07-23T17:11:13.458Z,2.97
2018-07-23T17:13:42.759Z,2.80
2018-07-23T17:16:12.320Z,2.60
2018-07-23T17:18:41.548Z,2.67
2018-07-23T17:21:11.359Z,2.43
2018-07-23T17:23:40.772Z,2.60
2018-07-23T17:26:10.012Z,2.27
2018-07-23T17:28:39.330Z,2.47
2018-07-23T17:31:09.138Z,2.03
2018-07-23T17:33:38.473Z,2.60
2018-07-23T17:36:07.837Z,2.27
2018-07-23T17:38:37.071Z,2.40
2018-07-23T17:41:06.322Z,2.60
2018-07-23T17:43:36.040Z,2.60
2018-07-23T17:46:05.317Z,2.50
2018-07-23T17:48:34.606Z,2.70
2018-07-23T17:51:04.004Z,2.50
2018-07-23T17:53:33.263Z,2.40
2018-07-23T17:56:02.922Z,2.17
2018-07-23T17:58:32.330Z,2.53
2018-07-23T18:01:01.689Z,2.80
2018-07-23T18:03:31.129Z,3.20
2018-07-23T18:06:00.542Z,2.60
2018-07-23T18:08:30.007Z,2.23
2018-07-23T18:10:59.341Z,2.60
2018-07-23T18:13:28.738Z,2.70
2018-07-23T18:15:58.845Z,2.90
2018-07-23T18:18:28.301Z,2.60
2018-07-23T18:20:58.037Z,2.80
2018-07-23T18:23:27.553Z,2.43
2018-07-23T18:25:56.991Z,2.90
2018-07-23T18:28:26.492Z,2.50
2018-07-23T18:30:55.825Z,2.90
2018-07-23T18:33:25.057Z,2.50
2018-07-23T18:35:54.484Z,3.00
2018-07-23T18:38:23.853Z,3.03
2018-07-23T18:40:53.147Z,2.97
2018-07-23T18:43:22.502Z,2.90
2018-07-23T18:45:51.781Z,2.93
2018-07-23T18:49:31.763Z,3.03
2018-07-23T18:52:01.080Z,3.30
2018-07-23T18:54:31.411Z,3.40
2018-07-23T18:57:01.870Z,3.20
2018-07-23T18:59:31.238Z,3.13
2018-07-23T19:02:01.384Z,3.20
2018-07-23T19:04:30.521Z,2.80
2018-07-23T19:06:59.949Z,3.20
2018-07-23T19:09:29.856Z,2.60
2018-07-23T19:11:59.725Z,3.47
2018-07-23T19:14:29.165Z,3.10
2018-07-23T19:16:59.339Z,3.07
2018-07-23T19:19:28.636Z,3.03
2018-07-23T19:21:57.898Z,3.40
2018-07-23T19:24:27.050Z,3.67
2018-07-23T19:26:56.386Z,3.30
2018-07-23T19:29:25.672Z,3.40
2018-07-23T19:31:54.995Z,3.50
2018-07-23T19:34:24.255Z,3.00
2018-07-23T19:36:53.510Z,3.47
2018-07-23T19:39:22.893Z,3.37
2018-07-23T19:41:52.234Z,3.30
2018-07-23T19:44:21.492Z,3.80
2018-07-23T19:46:50.890Z,3.87
2018-07-23T19:49:20.066Z,4.13
2018-07-23T19:51:49.297Z,4.10
2018-07-23T19:54:18.585Z,3.97
2018-07-23T19:56:47.702Z,3.53
2018-07-23T19:59:16.999Z,4.20
2018-07-23T20:01:46.391Z,4.40
2018-07-23T20:04:15.637Z,3.37
2018-07-23T20:06:45.041Z,3.50
2018-07-23T20:09:14.300Z,3.70
2018-07-23T20:11:43.570Z,3.33
2018-07-23T20:14:12.838Z,3.80
2018-07-23T20:16:42.190Z,4.47
2018-07-23T20:19:11.558Z,4.27
2018-07-23T20:21:40.943Z,3.77
2018-07-23T20:24:10.058Z,3.80
2018-07-23T20:26:39.281Z,3.73
2018-07-23T20:29:08.790Z,4.90
2018-07-23T20:31:38.109Z,4.30
2018-07-23T20:34:07.370Z,3.90
2018-07-23T20:36:36.845Z,4.70
2018-07-23T20:39:07.847Z,4.70
2018-07-23T20:41:37.146Z,4.00
2018-07-23T20:44:06.409Z,3.77
2018-07-23T20:46:35.622Z,4.30
2018-07-23T20:49:04.847Z,4.13
2018-07-23T20:51:34.517Z,4.00
2018-07-23T20:54:03.737Z,4.10
2018-07-23T20:56:33.078Z,4.80
2018-07-23T20:59:02.077Z,4.27
2018-07-23T21:01:31.022Z,4.50
2018-07-23T21:04:00.355Z,5.03
2018-07-23T21:06:29.347Z,4.70
2018-07-23T21:08:58.258Z,4.60
2018-07-23T21:11:27.210Z,4.37
2018-07-23T21:13:56.489Z,4.50
2018-07-23T21:16:25.730Z,4.20
2018-07-23T21:18:55.422Z,5.17
2018-07-23T21:21:24.742Z,4.13
2018-07-23T21:23:54.117Z,4.40
2018-07-23T21:26:23.597Z,4.33
2018-07-23T21:28:52.950Z,5.20
2018-07-23T21:31:22.640Z,4.80
2018-07-23T21:33:52.057Z,5.40
2018-07-23T21:36:21.338Z,4.67
2018-07-23T21:38:50.645Z,4.93
2018-07-23T21:41:19.905Z,5.23
2018-07-23T21:43:49.157Z,5.60
2018-07-23T21:46:18.423Z,5.07
2018-07-23T21:48:48.045Z,5.13
2018-07-23T21:51:17.353Z,6.80
2018-07-23T21:53:46.682Z,5.60
2018-07-23T21:56:15.940Z,6.37
2018-07-23T21:58:45.137Z,5.70
2018-07-23T22:01:14.298Z,6.50
2018-07-23T22:03:43.550Z,5.60
2018-07-23T22:06:12.905Z,5.70
2018-07-23T22:08:42.142Z,5.50
2018-07-23T22:11:11.447Z,5.47
2018-07-23T22:13:40.751Z,5.13
2018-07-23T22:16:10.110Z,6.17
2018-07-23T22:18:39.353Z,6.37
2018-07-23T22:21:09.280Z,5.87
2018-07-23T22:23:38.591Z,5.30
2018-07-23T22:26:07.937Z,5.87
2018-07-23T22:28:37.374Z,6.37
2018-07-23T22:31:06.618Z,6.30
2018-07-23T22:33:35.981Z,6.50
2018-07-23T22:36:05.252Z,6.50
2018-07-23T22:38:34.482Z,6.90
2018-07-23T22:41:03.818Z,6.40
2018-07-23T22:43:33.274Z,6.30
2018-07-23T22:46:02.434Z,5.90
2018-07-23T22:48:31.830Z,6.37
2018-07-23T22:51:01.039Z,6.83
2018-07-23T22:53:30.261Z,6.23
2018-07-23T22:55:59.625Z,6.90
2018-07-23T22:58:28.858Z,6.90
2018-07-23T23:00:58.015Z,6.77
2018-07-23T23:03:27.281Z,6.60
2018-07-23T23:05:56.538Z,6.27
2018-07-23T23:08:25.765Z,6.97
2018-07-23T23:10:55.019Z,6.80
2018-07-23T23:13:24.362Z,6.80
2018-07-23T23:15:53.522Z,7.20
2018-07-23T23:18:22.845Z,7.03
2018-07-23T23:20:52.179Z,6.70
2018-07-23T23:23:21.501Z,6.47
2018-07-23T23:25:50.846Z,7.50
2018-07-23T23:28:20.050Z,6.50
2018-07-23T23:30:49.274Z,6.80
2018-07-23T23:33:18.523Z,6.30
2018-07-23T23:35:48.183Z,6.53
2018-07-23T23:38:17.481Z,6.90
2018-07-23T23:40:46.814Z,6.40
2018-07-23T23:43:16.154Z,6.70
2018-07-23T23:45:45.397Z,7.40
2018-07-23T23:48:14.773Z,7.40
2018-07-23T23:50:44.009Z,6.80
2018-07-23T23:53:13.377Z,6.80
2018-07-23T23:55:42.701Z,7.17
2018-07-23T23:58:11.952Z,6.47
